createdAt,value
2019-04-05T00:01:01.272Z,7.40
2019-04-05T00:03:48.728Z,7.20
2019-04-05T00:06:36.557Z,7.33
2019-04-05T00:09:24.061Z,7.03
2019-04-05T00:12:11.341Z,7.33
2019-04-05T00:14:58.901Z,7.27
2019-04-05T00:17:46.049Z,7.73
2019-04-05T00:20:34.158Z,8.00
2019-04-05T00:23:21.485Z,7.43
2019-04-05T00:26:09.360Z,7.33
2019-04-05T00:28:57.043Z,7.83
2019-04-05T00:31:44.279Z,7.77
2019-04-05T00:34:31.439Z,7.13
2019-04-05T00:37:18.864Z,7.40
2019-04-05T00:40:07.804Z,7.37
2019-04-05T00:42:55.407Z,7.37
2019-04-05T00:45:43.587Z,6.73
2019-04-05T00:48:31.201Z,7.13
2019-04-05T00:51:18.750Z,6.90
2019-04-05T00:54:06.481Z,7.77
2019-04-05T00:56:54.190Z,7.13
2019-04-05T00:59:42.321Z,7.70
2019-04-05T01:02:29.796Z,7.53
2019-04-05T01:05:17.257Z,7.60
2019-04-05T01:08:04.969Z,7.40
2019-04-05T01:10:52.155Z,7.10
2019-04-05T01:13:40.414Z,7.20
2019-04-05T01:16:28.126Z,7.07
2019-04-05T01:19:16.409Z,7.43
2019-04-05T01:22:07.836Z,7.17
2019-04-05T01:24:55.304Z,7.37
2019-04-05T01:27:42.756Z,7.50
2019-04-05T01:30:30.757Z,7.57
2019-04-05T01:33:18.468Z,7.37
2019-04-05T01:36:06.292Z,7.13
2019-04-05T01:38:53.688Z,6.93
2019-04-05T01:41:41.656Z,7.43
2019-04-05T01:44:29.773Z,7.40
2019-04-05T01:47:17.312Z,6.50
2019-04-05T01:50:05.717Z,6.90
2019-04-05T01:52:53.556Z,6.57
2019-04-05T01:55:40.843Z,6.70
2019-04-05T01:58:28.070Z,6.63
2019-04-05T02:01:15.473Z,6.23
2019-04-05T02:04:03.371Z,6.40
2019-04-05T02:06:51.096Z,6.60
2019-04-05T02:09:39.736Z,5.90
2019-04-05T02:12:27.366Z,6.23
2019-04-05T02:15:28.681Z,6.40
2019-04-05T02:18:16.148Z,6.30
2019-04-05T02:21:03.411Z,6.13
2019-04-05T02:23:51.192Z,6.27
2019-04-05T02:26:38.661Z,5.87
2019-04-05T02:29:26.350Z,6.23
2019-04-05T02:32:14.153Z,6.93
2019-04-05T02:35:02.025Z,5.83
2019-04-05T02:37:49.605Z,5.97
2019-04-05T02:40:40.002Z,6.60
2019-04-05T02:43:30.678Z,6.77
2019-04-05T02:46:23.759Z,6.50
2019-04-05T02:49:08.991Z,6.80
2019-04-05T02:51:58.206Z,6.37
2019-04-05T02:54:46.922Z,7.10
2019-04-05T02:57:35.033Z,6.90
2019-04-05T03:00:22.706Z,7.30
2019-04-05T03:03:11.393Z,6.87
2019-04-05T03:05:59.283Z,6.93
2019-04-05T03:08:47.151Z,7.27
2019-04-05T03:11:36.104Z,6.70
2019-04-05T03:14:23.900Z,7.10
2019-04-05T03:17:12.572Z,7.33
2019-04-05T03:20:02.818Z,7.80
2019-04-05T03:22:50.416Z,7.43
2019-04-05T03:25:38.651Z,7.63
2019-04-05T03:28:26.617Z,7.67
2019-04-05T03:31:14.920Z,7.40
2019-04-05T03:34:02.856Z,7.73
2019-04-05T03:36:51.806Z,7.87
2019-04-05T03:39:40.173Z,8.07
2019-04-05T03:42:28.125Z,7.93
2019-04-05T03:45:15.477Z,8.30
2019-04-05T03:48:03.113Z,7.80
2019-04-05T03:50:50.844Z,7.83
2019-04-05T03:53:39.025Z,7.67
2019-04-05T03:56:26.578Z,7.57
2019-04-05T03:59:14.400Z,7.53
2019-04-05T04:02:02.410Z,7.77
2019-04-05T04:04:50.741Z,7.80
2019-04-05T04:07:38.413Z,8.27
2019-04-05T04:10:27.872Z,8.73
2019-04-05T04:13:15.912Z,8.30
2019-04-05T04:16:04.889Z,8.47
2019-04-05T04:18:52.693Z,8.70
2019-04-05T04:21:52.883Z,7.27
2019-04-05T04:24:40.972Z,8.57
2019-04-05T04:27:29.784Z,8.33
2019-04-05T04:30:18.190Z,8.73
2019-04-05T04:33:06.741Z,8.17
2019-04-05T04:35:54.871Z,8.70
2019-04-05T04:38:43.489Z,8.27
2019-04-05T04:41:32.124Z,7.70
2019-04-05T04:44:20.340Z,8.17
2019-04-05T04:47:08.172Z,8.57
2019-04-05T04:49:57.615Z,8.70
2019-04-05T04:52:45.564Z,8.50
2019-04-05T04:55:34.281Z,8.10
2019-04-05T04:58:22.178Z,8.27
2019-04-05T05:01:10.736Z,8.17
2019-04-05T05:03:58.099Z,8.57
2019-04-05T05:06:46.139Z,8.33
2019-04-05T05:09:34.333Z,8.13
2019-04-05T05:12:22.515Z,8.23
2019-04-05T05:15:10.420Z,8.33
2019-04-05T05:17:59.104Z,8.03
2019-04-05T05:20:47.321Z,8.77
2019-04-05T05:23:35.260Z,9.07
2019-04-05T05:26:23.641Z,8.80
2019-04-05T05:29:11.657Z,8.63
2019-04-05T05:31:58.987Z,8.60
2019-04-05T05:34:46.879Z,8.50
2019-04-05T05:37:34.816Z,7.93
2019-04-05T05:40:34.022Z,8.17
2019-04-05T05:43:11.737Z,8.13
2019-04-05T05:45:59.049Z,9.03
2019-04-05T05:48:47.095Z,8.73
2019-04-05T05:51:34.609Z,8.40
2019-04-05T05:54:22.356Z,8.47
2019-04-05T05:57:10.181Z,8.20
2019-04-05T05:59:58.502Z,8.17
2019-04-05T06:02:48.544Z,8.30
2019-04-05T06:05:36.224Z,8.63
2019-04-05T06:08:23.736Z,9.00
2019-04-05T06:11:11.372Z,10.13
2019-04-05T06:13:59.048Z,8.33
2019-04-05T06:16:46.932Z,8.50
2019-04-05T06:19:34.932Z,7.60
2019-04-05T06:22:22.960Z,7.50
2019-04-05T06:25:10.769Z,8.50
2019-04-05T06:27:59.915Z,9.57
2019-04-05T06:30:47.884Z,11.40
2019-04-05T06:33:36.043Z,8.13
2019-04-05T06:36:23.832Z,8.27
2019-04-05T06:39:11.335Z,8.80
2019-04-05T06:41:58.844Z,8.37
2019-04-05T06:44:46.868Z,8.77
2019-04-05T06:47:34.929Z,9.10
2019-04-05T06:50:22.794Z,8.80
2019-04-05T06:53:11.451Z,8.17
2019-04-05T06:55:59.979Z,8.30
2019-04-05T06:58:47.843Z,9.63
2019-04-05T07:01:35.335Z,9.33
2019-04-05T07:04:22.560Z,11.57
2019-04-05T07:07:10.728Z,10.97
2019-04-05T07:09:58.151Z,12.23
2019-04-05T07:12:46.079Z,12.63
2019-04-05T07:15:33.800Z,11.27
2019-04-05T07:18:32.495Z,13.67
2019-04-05T07:21:10.797Z,16.53
2019-04-05T07:23:58.568Z,12.73
2019-04-05T07:26:46.196Z,12.63
2019-04-05T07:29:34.397Z,13.00
2019-04-05T07:32:21.896Z,11.57
2019-04-05T07:35:09.760Z,12.97
2019-04-05T07:37:57.508Z,11.80
2019-04-05T07:40:45.107Z,12.47
2019-04-05T07:43:32.288Z,13.27
2019-04-05T07:46:20.056Z,12.83
2019-04-05T07:49:08.274Z,12.30
2019-04-05T07:51:55.824Z,11.20
2019-04-05T07:54:43.746Z,12.40
2019-04-05T07:57:31.738Z,13.00
2019-04-05T08:00:57.229Z,13.27
2019-04-05T08:03:44.722Z,14.40
2019-04-05T08:06:34.380Z,12.80
2019-04-05T08:09:23.548Z,14.23
2019-04-05T08:12:11.699Z,14.17
2019-04-05T08:14:59.528Z,14.33
2019-04-05T08:17:47.368Z,14.43
2019-04-05T08:20:35.584Z,14.63
2019-04-05T08:23:24.365Z,14.03
2019-04-05T08:26:12.073Z,15.50
2019-04-05T08:28:59.572Z,14.83
2019-04-05T08:31:47.375Z,18.53
2019-04-05T08:34:34.812Z,16.50
2019-04-05T08:37:22.623Z,15.40
2019-04-05T08:40:11.230Z,17.17
2019-04-05T08:42:59.047Z,16.67
2019-04-05T08:45:46.971Z,15.93
2019-04-05T08:48:35.130Z,16.03
2019-04-05T08:51:22.912Z,17.07
2019-04-05T08:54:10.842Z,16.33
2019-04-05T08:56:58.408Z,15.40
2019-04-05T08:59:46.637Z,16.07
2019-04-05T09:02:34.326Z,16.17
2019-04-05T09:05:21.848Z,16.37
2019-04-05T09:08:09.600Z,16.67
2019-04-05T09:10:57.370Z,14.93
2019-04-05T09:13:45.315Z,16.70
2019-04-05T09:16:32.865Z,17.30
2019-04-05T09:19:23.929Z,17.43
2019-04-05T09:22:10.226Z,16.53
2019-04-05T09:24:58.096Z,15.83
2019-04-05T09:27:46.224Z,16.00
2019-04-05T09:30:33.857Z,15.57
2019-04-05T09:33:21.061Z,15.33
2019-04-05T09:36:08.721Z,15.13
2019-04-05T09:38:56.068Z,14.83
2019-04-05T09:41:43.641Z,14.40
2019-04-05T09:44:31.734Z,13.97
2019-04-05T09:47:19.946Z,13.73
2019-04-05T09:50:07.965Z,12.60
2019-04-05T09:52:55.480Z,13.47
2019-04-05T09:55:43.620Z,12.97
2019-04-05T09:58:31.136Z,12.70
2019-04-05T10:01:19.236Z,12.47
2019-04-05T10:04:07.541Z,12.83
2019-04-05T10:06:54.911Z,13.37
2019-04-05T10:09:42.571Z,13.53
2019-04-05T10:12:29.816Z,13.70
2019-04-05T10:15:17.648Z,13.10
2019-04-05T10:18:05.472Z,12.40
2019-04-05T10:20:53.404Z,11.60
2019-04-05T10:23:40.848Z,11.73
2019-04-05T10:26:28.669Z,11.60
2019-04-05T10:29:16.588Z,11.90
2019-04-05T10:32:04.179Z,12.00
2019-04-05T10:34:52.048Z,12.23
2019-04-05T10:37:39.587Z,11.87
2019-04-05T10:40:27.231Z,12.23
2019-04-05T10:43:15.300Z,11.83
2019-04-05T10:46:03.538Z,12.67
2019-04-05T10:48:51.052Z,12.53
2019-04-05T10:51:39.336Z,11.97
2019-04-05T10:54:27.135Z,12.43
2019-04-05T10:57:15.080Z,12.43
2019-04-05T11:00:03.184Z,12.83
2019-04-05T11:02:51.593Z,11.93
2019-04-05T11:05:39.433Z,13.53
2019-04-05T11:08:30.460Z,13.37
2019-04-05T11:11:18.166Z,13.33
2019-04-05T11:14:13.537Z,13.53
2019-04-05T11:16:58.568Z,12.20
2019-04-05T11:19:45.071Z,12.43
2019-04-05T11:22:32.551Z,13.07
2019-04-05T11:25:20.997Z,12.03
2019-04-05T11:28:09.060Z,12.00
2019-04-05T11:30:56.884Z,11.20
2019-04-05T11:33:44.944Z,10.67
2019-04-05T11:36:32.855Z,11.90
2019-04-05T11:39:21.375Z,11.43
2019-04-05T11:42:09.616Z,11.00
2019-04-05T11:44:58.455Z,11.57
2019-04-05T11:47:46.964Z,12.17
2019-04-05T11:50:35.187Z,10.40
2019-04-05T11:53:23.049Z,9.97
2019-04-05T11:56:15.058Z,10.33
2019-04-05T11:59:00.357Z,11.07
2019-04-05T12:01:56.112Z,11.07
2019-04-05T12:04:43.941Z,11.20
2019-04-05T12:07:31.394Z,11.47
2019-04-05T12:10:19.942Z,11.20
2019-04-05T12:13:07.540Z,10.07
2019-04-05T12:15:57.931Z,9.90
2019-04-05T12:18:44.412Z,10.00
2019-04-05T12:21:32.610Z,11.10
2019-04-05T12:24:21.531Z,11.40
2019-04-05T12:27:09.236Z,11.17
2019-04-05T12:29:57.011Z,12.10
2019-04-05T12:32:46.659Z,11.73
2019-04-05T12:35:37.589Z,11.23
2019-04-05T12:38:32.923Z,10.90
2019-04-05T12:41:20.880Z,11.43
2019-04-05T12:44:08.604Z,11.40
2019-04-05T12:46:55.793Z,11.53
2019-04-05T12:49:43.394Z,10.80
2019-04-05T12:52:32.569Z,10.67
2019-04-05T12:55:23.737Z,10.50
2019-04-05T12:58:10.115Z,10.50
2019-04-05T13:01:04.023Z,11.77
2019-04-05T13:03:51.848Z,10.97
2019-04-05T13:06:42.207Z,10.60
2019-04-05T13:09:29.219Z,10.17
2019-04-05T13:12:17.450Z,10.60
2019-04-05T13:15:12.910Z,11.70
2019-04-05T13:17:55.037Z,10.77
2019-04-05T13:20:42.511Z,10.20
2019-04-05T13:23:30.788Z,10.50
2019-04-05T13:26:18.798Z,10.43
2019-04-05T13:29:06.362Z,10.37
2019-04-05T13:31:53.860Z,10.90
2019-04-05T13:34:41.483Z,10.03
2019-04-05T13:37:30.779Z,10.00
2019-04-05T13:40:18.772Z,9.67
2019-04-05T13:43:06.744Z,10.07
2019-04-05T13:45:54.890Z,10.17
2019-04-05T13:48:42.917Z,10.07
2019-04-05T13:51:32.030Z,9.17
2019-04-05T13:54:19.832Z,10.70
2019-04-05T13:57:08.575Z,9.20
2019-04-05T13:59:57.536Z,9.87
2019-04-05T14:02:45.181Z,9.67
2019-04-05T14:05:33.497Z,9.67
2019-04-05T14:08:21.287Z,10.17
2019-04-05T14:11:10.480Z,9.50
2019-04-05T14:13:58.274Z,9.53
2019-04-05T14:16:46.040Z,9.57
2019-04-05T14:19:33.857Z,10.07
2019-04-05T14:22:22.539Z,9.43
2019-04-05T14:25:11.519Z,9.20
2019-04-05T14:27:59.197Z,9.27
2019-04-05T14:30:46.680Z,8.60
2019-04-05T14:33:34.520Z,8.93
2019-04-05T14:36:23.024Z,8.97
2019-04-05T14:39:11.118Z,8.67
2019-04-05T14:42:09.102Z,9.43
2019-04-05T14:44:49.013Z,8.77
2019-04-05T14:47:36.416Z,8.93
2019-04-05T14:50:24.339Z,9.30
2019-04-05T14:53:12.133Z,9.43
2019-04-05T14:56:00.135Z,9.70
2019-04-05T14:58:47.963Z,9.90
2019-04-05T15:01:35.729Z,9.37
2019-04-05T15:04:23.527Z,10.00
2019-04-05T15:07:11.092Z,9.07
2019-04-05T15:09:59.140Z,8.67
2019-04-05T15:12:47.072Z,8.17
2019-04-05T15:15:34.621Z,8.73
2019-04-05T15:18:24.422Z,9.10
2019-04-05T15:21:11.785Z,8.73
2019-04-05T15:23:59.788Z,8.60
2019-04-05T15:26:49.393Z,8.73
2019-04-05T15:29:36.839Z,8.80
2019-04-05T15:32:25.439Z,8.43
2019-04-05T15:35:14.568Z,8.40
2019-04-05T15:38:02.295Z,8.80
2019-04-05T15:40:49.833Z,8.67
2019-04-05T15:43:37.639Z,7.63
2019-04-05T15:46:25.680Z,8.07
2019-04-05T15:49:13.360Z,8.93
2019-04-05T15:52:01.391Z,8.00
2019-04-05T15:54:48.944Z,8.70
2019-04-05T15:57:39.327Z,8.17
2019-04-05T16:00:41.456Z,7.93
2019-04-05T16:03:31.971Z,8.80
2019-04-05T16:06:18.369Z,8.73
2019-04-05T16:09:09.067Z,8.80
2019-04-05T16:11:56.884Z,8.63
2019-04-05T16:14:44.265Z,8.60
2019-04-05T16:17:32.094Z,8.93
2019-04-05T16:20:19.996Z,8.37
2019-04-05T16:23:07.906Z,8.50
2019-04-05T16:25:55.570Z,8.53
2019-04-05T16:28:43.365Z,8.73
2019-04-05T16:31:31.129Z,9.47
2019-04-05T16:34:19.068Z,9.27
2019-04-05T16:37:07.420Z,9.40
2019-04-05T16:39:54.698Z,9.20
2019-04-05T16:42:42.760Z,8.97
2019-04-05T16:45:30.697Z,9.03
2019-04-05T16:48:18.160Z,8.83
2019-04-05T16:51:05.708Z,8.73
2019-04-05T16:54:03.496Z,9.07
2019-04-05T16:56:51.400Z,9.30
2019-04-05T16:59:39.108Z,8.53
2019-04-05T17:02:27.157Z,9.00
2019-04-05T17:05:15.176Z,9.73
2019-04-05T17:08:03.223Z,9.03
2019-04-05T17:10:51.036Z,8.60
2019-04-05T17:13:39.218Z,9.20
2019-04-05T17:16:27.064Z,9.43
2019-04-05T17:19:14.569Z,8.93
2019-04-05T17:22:02.079Z,9.27
2019-04-05T17:24:49.600Z,9.93
2019-04-05T17:27:37.256Z,9.20
2019-04-05T17:30:25.404Z,8.63
2019-04-05T17:33:13.064Z,9.20
2019-04-05T17:36:01.158Z,9.63
2019-04-05T17:38:49.121Z,9.13
2019-04-05T17:41:37.144Z,9.27
2019-04-05T17:44:24.601Z,9.73
2019-04-05T17:47:12.421Z,8.93
2019-04-05T17:50:02.019Z,9.33
2019-04-05T17:52:49.584Z,9.70
2019-04-05T17:55:37.397Z,9.37
2019-04-05T17:58:27.924Z,9.33
2019-04-05T18:01:15.428Z,9.33
2019-04-05T18:04:03.309Z,9.67
2019-04-05T18:06:51.095Z,9.70
2019-04-05T18:09:39.109Z,9.80
2019-04-05T18:12:26.631Z,8.67
2019-04-05T18:15:14.556Z,8.90
2019-04-05T18:18:02.188Z,9.17
2019-04-05T18:20:49.869Z,9.67
2019-04-05T18:23:37.861Z,9.20
2019-04-05T18:26:26.343Z,9.60
2019-04-05T18:29:14.195Z,9.67
2019-04-05T18:32:01.846Z,9.80
2019-04-05T18:34:49.034Z,9.87
2019-04-05T18:37:37.126Z,11.03
2019-04-05T18:40:25.010Z,10.20
2019-04-05T18:43:13.159Z,10.67
2019-04-05T18:46:00.599Z,9.97
2019-04-05T18:48:48.056Z,10.60
2019-04-05T18:51:35.737Z,10.27
2019-04-05T18:54:23.012Z,9.50
2019-04-05T18:57:10.671Z,10.00
2019-04-05T18:59:58.488Z,9.93
2019-04-05T19:02:46.208Z,10.50
2019-04-05T19:05:33.739Z,11.00
2019-04-05T19:08:20.965Z,11.17
2019-04-05T19:11:08.443Z,11.57
2019-04-05T19:14:01.329Z,11.33
2019-04-05T19:16:45.636Z,12.10
2019-04-05T19:19:33.431Z,12.13
2019-04-05T19:22:21.186Z,11.50
2019-04-05T19:25:09.264Z,12.23
2019-04-05T19:27:57.520Z,11.97
2019-04-05T19:50:30.288Z,11.23
2019-04-05T19:53:18.271Z,11.53
2019-04-05T19:56:05.840Z,12.40
2019-04-05T19:58:53.585Z,12.40
2019-04-05T20:01:41.091Z,12.43
2019-04-05T20:04:29.196Z,12.27
2019-04-05T20:07:17.001Z,12.63
2019-04-05T20:10:05.226Z,13.60
2019-04-05T20:12:52.973Z,12.00
2019-04-05T20:15:41.558Z,12.30
2019-04-05T20:18:29.267Z,11.90
2019-04-05T20:21:16.960Z,12.47
2019-04-05T20:24:13.806Z,12.50
2019-04-05T20:26:54.507Z,12.47
2019-04-05T20:29:42.455Z,12.73
2019-04-05T20:32:30.139Z,12.80
2019-04-05T20:35:17.772Z,13.33
2019-04-05T20:38:05.144Z,13.33
2019-04-05T20:40:52.387Z,12.47
2019-04-05T20:43:40.129Z,13.37
2019-04-05T20:46:28.084Z,12.00
2019-04-05T20:49:16.292Z,13.00
2019-04-05T20:52:04.667Z,12.80
2019-04-05T20:54:51.992Z,13.00
2019-04-05T20:57:39.507Z,12.27
2019-04-05T21:00:27.232Z,14.97
2019-04-05T21:03:14.672Z,14.13
2019-04-05T21:06:02.162Z,14.50
2019-04-05T21:08:49.324Z,14.10
2019-04-05T21:11:37.124Z,14.13
2019-04-05T21:14:24.582Z,13.37
2019-04-05T21:17:12.031Z,13.23
2019-04-05T21:19:59.425Z,13.47
2019-04-05T21:22:46.776Z,13.47
2019-04-05T21:25:34.404Z,14.60
2019-04-05T21:28:21.876Z,14.50
2019-04-05T21:31:08.981Z,14.03
2019-04-05T21:33:56.928Z,15.10
2019-04-05T21:36:44.588Z,14.67
2019-04-05T21:39:32.183Z,14.77
2019-04-05T21:42:19.894Z,15.70
2019-04-05T21:45:08.465Z,14.73
2019-04-05T21:47:55.968Z,15.13
2019-04-05T21:50:43.980Z,14.43
2019-04-05T21:53:31.960Z,14.97
2019-04-05T21:56:19.509Z,15.37
2019-04-05T21:59:07.240Z,15.80
2019-04-05T22:01:55.257Z,15.83
2019-04-05T22:04:43.211Z,14.73
2019-04-05T22:07:30.945Z,14.57
2019-04-05T22:10:18.227Z,14.77
2019-04-05T22:13:05.949Z,15.37
2019-04-05T22:15:53.235Z,14.53
2019-04-05T22:18:41.308Z,14.53
2019-04-05T22:21:28.873Z,14.60
2019-04-05T22:24:16.122Z,14.90
2019-04-05T22:27:03.715Z,15.80
2019-04-05T22:29:51.176Z,16.17
2019-04-05T22:32:39.111Z,16.13
2019-04-05T22:35:26.554Z,14.53
2019-04-05T22:38:14.172Z,16.13
2019-04-05T22:41:01.958Z,15.33
2019-04-05T22:43:49.579Z,15.40
2019-04-05T22:46:37.167Z,15.00
2019-04-05T22:49:24.300Z,16.10
2019-04-05T22:52:12.132Z,15.43
2019-04-05T22:55:10.541Z,16.03
2019-04-05T22:57:48.955Z,15.27
2019-04-05T23:00:36.876Z,15.63
2019-04-05T23:03:24.559Z,15.63
2019-04-05T23:06:12.323Z,14.67
2019-04-05T23:09:00.295Z,16.30
2019-04-05T23:11:48.026Z,16.13
2019-04-05T23:14:36.066Z,17.40
2019-04-05T23:17:23.566Z,16.63
2019-04-05T23:20:11.640Z,17.77
2019-04-05T23:22:58.783Z,15.57
2019-04-05T23:25:46.549Z,16.20
2019-04-05T23:28:33.631Z,16.93
2019-04-05T23:31:20.836Z,15.87
2019-04-05T23:34:08.394Z,15.73
2019-04-05T23:36:56.207Z,15.00
2019-04-05T23:39:43.985Z,15.73
2019-04-05T23:42:31.693Z,15.87
2019-04-05T23:45:19.329Z,17.43
2019-04-05T23:48:06.968Z,18.23
2019-04-05T23:50:54.708Z,18.20
2019-04-05T23:53:42.544Z,18.00
2019-04-05T23:56:30.812Z,18.43
2019-04-05T23:59:18.583Z,17.60
